Captain Cook, Hawaii
Current Conditions -  °F | °C
As of 1:53 AM on Saturday 25 Oct 2014 (Local Time) from PHKO Reporting Station
Clear Clear  
Wind Chill: 77°   Ceiling: Unl
Heat Index: 79°   Visibility: 10mi
Dew Point: 64°   Wind: 3mph
Humidity: 64%   Direction: 90°E
Pressure: 29.97"   Gusts: NA
Location:  19.49°N, 155.91°W
Report Text: PHKO 251153Z AUTO 09003KT 10SM CLR 25/18 A2997 RMK AO2 SLP149 T02500178 10278 20244 58012 TSNO
Loading
Personal Weather Stations






























Interactive Weather Map
Tropical Storm Tracking
New forecast layout! Learn more

10-Day Weather Forecast

Advertisements
Track Severe Weather on mobile